createdAt,value
2016-05-14T11:10:33.759Z,705
2016-05-14T11:11:33.794Z,375
2016-05-14T11:12:33.734Z,315
2016-05-14T11:13:33.580Z,300
2016-05-14T11:14:33.707Z,250
2016-05-14T11:15:33.554Z,225
2016-05-14T11:16:33.541Z,190
2016-05-14T11:17:33.701Z,165
2016-05-14T11:18:33.812Z,155
2016-05-14T11:19:33.737Z,150
2016-05-14T11:20:33.662Z,160
2016-05-14T11:21:33.664Z,175
2016-05-14T11:22:33.651Z,180
2016-05-14T11:23:33.653Z,180
2016-05-14T11:24:33.625Z,185
2016-05-14T11:25:33.628Z,180
2016-05-14T11:26:33.615Z,205
2016-05-14T11:27:33.603Z,270
2016-05-14T11:28:33.589Z,380
2016-05-14T11:29:33.450Z,500
2016-05-14T11:30:33.422Z,520
2016-05-14T11:31:33.581Z,620
2016-05-14T11:32:33.397Z,2090
2016-05-14T11:33:33.477Z,2295
2016-05-14T11:34:33.402Z,1140
2016-05-14T11:35:33.530Z,580
2016-05-14T11:36:33.533Z,415
2016-05-14T11:37:33.566Z,295
2016-05-14T11:38:33.522Z,230
2016-05-14T11:39:33.525Z,185
2016-05-14T11:40:33.496Z,165
2016-05-14T11:41:33.343Z,160
2016-05-14T11:42:33.485Z,165
2016-05-14T11:43:33.348Z,175
2016-05-14T11:44:33.491Z,195
2016-05-14T11:45:33.479Z,215
2016-05-14T11:46:33.309Z,250
2016-05-14T11:47:33.296Z,275
2016-05-14T11:48:33.362Z,340
2016-05-14T11:49:33.459Z,450
2016-05-14T11:50:33.445Z,555
2016-05-14T11:51:33.448Z,595
2016-05-14T11:52:33.420Z,560
2016-05-14T11:53:33.251Z,515
2016-05-14T11:54:33.253Z,490
2016-05-14T11:55:33.443Z,2435
2016-05-14T11:56:33.398Z,640
2016-05-14T11:57:33.401Z,1345
2016-05-14T11:58:33.373Z,2390
2016-05-14T11:59:33.047Z,2150
2016-05-14T12:00:33.378Z,2240
2016-05-14T12:01:33.349Z,2265
2016-05-14T12:02:33.368Z,2265
2016-05-14T12:03:33.714Z,2240
2016-05-14T12:04:33.327Z,2285
2016-05-14T12:05:33.329Z,2150
2016-05-14T12:06:33.316Z,605
2016-05-14T12:07:33.335Z,490
2016-05-14T12:08:33.009Z,425
2016-05-14T12:09:33.153Z,375
2016-05-14T12:10:33.154Z,330
2016-05-14T12:11:33.157Z,305
2016-05-14T12:12:33.176Z,285
2016-05-14T12:13:33.335Z,250
2016-05-14T12:14:33.135Z,215
2016-05-14T12:15:33.294Z,185
2016-05-14T12:16:33.282Z,175
2016-05-14T12:17:33.315Z,165
2016-05-14T12:18:33.380Z,155
2016-05-14T12:19:33.289Z,145
2016-05-14T12:20:33.292Z,140
2016-05-14T12:21:33.295Z,145
2016-05-14T12:22:33.250Z,150
2016-05-14T12:23:33.128Z,160
2016-05-14T12:24:33.099Z,165
2016-05-14T12:25:33.117Z,175
2016-05-14T12:26:33.245Z,200
2016-05-14T12:27:33.217Z,275
2016-05-14T12:28:33.063Z,320
2016-05-14T12:29:33.206Z,370
2016-05-14T12:30:33.178Z,430
2016-05-14T12:31:33.211Z,450
2016-05-14T12:32:33.214Z,515
2016-05-14T12:33:33.154Z,1330
2016-05-14T12:34:33.204Z,2235
2016-05-14T12:35:33.003Z,1260
2016-05-14T12:36:33.022Z,2195
2016-05-14T12:37:33.149Z,2050
2016-05-14T12:38:32.824Z,880
2016-05-14T12:39:33.171Z,1195
2016-05-14T12:40:32.971Z,1410
2016-05-14T12:41:33.130Z,1610
2016-05-14T12:42:32.960Z,1825
2016-05-14T12:43:33.119Z,2065
2016-05-14T12:44:33.513Z,2215
2016-05-14T12:45:33.093Z,2210
2016-05-14T12:46:33.080Z,2180
2016-05-14T12:47:32.942Z,2155
2016-05-14T12:48:33.960Z,2115
2016-05-14T12:49:33.088Z,2145
2016-05-14T12:50:33.090Z,1580
2016-05-14T12:51:33.126Z,1965
2016-05-14T12:52:33.112Z,640
2016-05-14T12:53:33.301Z,2120
2016-05-14T12:54:32.773Z,2105
2016-05-14T12:55:33.104Z,715
2016-05-14T12:56:32.920Z,700
2016-05-14T12:57:33.094Z,1375
2016-05-14T12:58:32.925Z,720
2016-05-14T12:59:33.100Z,515
2016-05-14T13:00:32.914Z,425
2016-05-14T13:01:33.073Z,430
2016-05-14T13:02:33.061Z,430
2016-05-14T13:03:32.782Z,365
2016-05-14T13:04:32.910Z,305
2016-05-14T13:05:32.741Z,250
2016-05-14T13:06:33.056Z,195
2016-05-14T13:07:33.058Z,160
2016-05-14T13:08:33.061Z,135
2016-05-14T13:09:33.064Z,110
2016-05-14T13:10:32.801Z,100
2016-05-14T13:11:32.897Z,85
2016-05-14T13:12:33.041Z,75
2016-05-14T13:13:33.027Z,70
2016-05-14T13:14:33.046Z,65
2016-05-14T13:15:33.361Z,70
2016-05-14T13:16:32.724Z,70
2016-05-14T13:17:33.007Z,75
2016-05-14T13:18:33.276Z,70
2016-05-14T13:19:32.857Z,70
2016-05-14T13:20:32.859Z,70
2016-05-14T13:21:32.987Z,80
2016-05-14T13:22:33.193Z,80
2016-05-14T13:23:32.820Z,80
2016-05-14T13:24:32.979Z,80
2016-05-14T13:25:32.810Z,90
2016-05-14T13:26:32.810Z,105
2016-05-14T13:27:32.835Z,125
2016-05-14T13:28:32.893Z,130
2016-05-14T13:29:33.059Z,135
2016-05-14T13:30:33.085Z,165
2016-05-14T13:31:33.118Z,285
2016-05-14T13:32:33.120Z,535
2016-05-14T13:33:33.527Z,1360
2016-05-14T13:34:32.982Z,2030
2016-05-14T13:35:33.139Z,1940
2016-05-14T13:36:33.153Z,1865
2016-05-14T13:37:33.130Z,1425
2016-05-14T13:38:32.996Z,1500
2016-05-14T13:39:33.317Z,1770
2016-05-14T13:40:33.122Z,1765
2016-05-14T13:41:33.003Z,1765
2016-05-14T13:42:33.133Z,1800
2016-05-14T13:43:33.122Z,1805
2016-05-14T13:44:33.126Z,1830
2016-05-14T13:45:32.959Z,310
2016-05-14T13:46:32.994Z,270
2016-05-14T13:47:33.107Z,270
2016-05-14T13:48:32.986Z,260
2016-05-14T13:49:33.083Z,290
2016-05-14T13:50:32.929Z,530
2016-05-14T13:51:33.090Z,695
2016-05-14T13:52:33.093Z,1830
2016-05-14T13:53:33.111Z,1840
2016-05-14T13:54:33.098Z,1810
2016-05-14T13:55:32.897Z,1800
2016-05-14T13:56:33.072Z,1790
2016-05-14T13:57:32.762Z,1770
2016-05-14T13:58:32.937Z,1760
2016-05-14T13:59:32.907Z,1755
2016-05-14T14:00:32.896Z,1725
2016-05-14T14:01:33.038Z,1700
2016-05-14T14:02:32.885Z,1700
2016-05-14T14:03:33.872Z,1495
2016-05-14T14:04:33.046Z,1720
2016-05-14T14:05:33.048Z,1810
2016-05-14T14:06:33.037Z,1165
2016-05-14T14:07:33.040Z,765
2016-05-14T14:08:33.026Z,1750
2016-05-14T14:09:32.997Z,605
2016-05-14T14:10:32.845Z,500
2016-05-14T14:11:32.847Z,1470
2016-05-14T14:12:32.865Z,1705
2016-05-14T14:13:32.711Z,455
2016-05-14T14:14:32.995Z,390
2016-05-14T14:15:33.013Z,370
2016-05-14T14:16:32.861Z,350
2016-05-14T14:17:33.003Z,335
2016-05-14T14:18:33.475Z,335
2016-05-14T14:19:32.836Z,335
2016-05-14T14:20:32.980Z,305
2016-05-14T14:21:32.983Z,275
2016-05-14T14:22:32.860Z,265
2016-05-14T14:23:32.973Z,260
2016-05-14T14:24:32.975Z,270
2016-05-14T14:25:32.807Z,255
2016-05-14T14:26:32.949Z,200
2016-05-14T14:27:32.796Z,125
2016-05-14T14:28:32.955Z,75
2016-05-14T14:29:32.926Z,65
2016-05-14T14:30:32.929Z,55
2016-05-14T14:31:32.931Z,45
2016-05-14T14:32:32.747Z,40
2016-05-14T14:33:32.984Z,40
2016-05-14T14:34:33.252Z,40
2016-05-14T14:35:32.895Z,45
2016-05-14T14:36:32.571Z,45
2016-05-14T14:37:32.885Z,45
2016-05-14T14:38:32.857Z,40
2016-05-14T14:39:32.734Z,35
2016-05-14T14:40:32.878Z,35
2016-05-14T14:41:32.850Z,35
2016-05-14T14:42:32.853Z,35
2016-05-14T14:43:32.714Z,45
2016-05-14T14:44:32.810Z,50
2016-05-14T14:45:33.000Z,60
2016-05-14T14:46:32.644Z,60
2016-05-14T14:47:32.802Z,75
2016-05-14T14:48:32.789Z,80
2016-05-14T14:49:32.606Z,80
2016-05-14T14:50:32.749Z,85
2016-05-14T14:51:32.735Z,110
2016-05-14T14:52:32.722Z,220
2016-05-14T14:53:32.725Z,280
2016-05-14T14:54:32.556Z,290
2016-05-14T14:55:32.699Z,250
2016-05-14T14:56:32.515Z,210
2016-05-14T14:57:32.673Z,185
2016-05-14T14:58:32.661Z,180
2016-05-14T14:59:32.491Z,170
2016-05-14T15:00:32.494Z,195
2016-05-14T15:01:32.621Z,205
2016-05-14T15:02:32.609Z,200
2016-05-14T15:03:34.001Z,200
2016-05-14T15:04:32.957Z,205
2016-05-14T15:05:32.414Z,210
2016-05-14T15:06:32.620Z,250
2016-05-14T15:07:32.544Z,290
2016-05-14T15:08:32.547Z,975
2016-05-14T15:09:32.534Z,1010
2016-05-14T15:10:32.381Z,395
2016-05-14T15:11:32.539Z,470
2016-05-14T15:12:32.495Z,355
2016-05-14T15:13:32.326Z,305
2016-05-14T15:14:32.470Z,900
2016-05-14T15:15:32.487Z,1480
2016-05-14T15:16:32.444Z,1475
2016-05-14T15:17:32.446Z,1400
2016-05-14T15:18:32.011Z,1335
2016-05-14T15:19:32.436Z,1265
2016-05-14T15:20:32.250Z,1260
2016-05-14T15:21:32.441Z,1150
2016-05-14T15:22:32.397Z,245
2016-05-14T15:23:32.368Z,180
2016-05-14T15:24:32.372Z,185
2016-05-14T15:25:32.827Z,320
2016-05-14T15:26:32.361Z,275
2016-05-14T15:27:32.348Z,240
2016-05-14T15:28:32.382Z,255
2016-05-14T15:29:32.385Z,280
2016-05-14T15:30:32.310Z,290
2016-05-14T15:31:32.312Z,315
2016-05-14T15:32:32.158Z,290
2016-05-14T15:33:32.568Z,310
2016-05-14T15:34:32.242Z,295
2016-05-14T15:35:32.290Z,280
2016-05-14T15:36:32.278Z,290
2016-05-14T15:37:32.125Z,265
2016-05-14T15:38:31.940Z,240
2016-05-14T15:39:32.240Z,230
2016-05-14T15:40:32.226Z,230
2016-05-14T15:41:32.073Z,220
2016-05-14T15:42:32.060Z,205
2016-05-14T15:43:32.047Z,210
2016-05-14T15:44:32.206Z,205
2016-05-14T15:45:32.022Z,185
2016-05-14T15:46:32.009Z,170
2016-05-14T15:47:32.027Z,150
2016-05-14T15:48:32.139Z,135
2016-05-14T15:49:31.782Z,135
2016-05-14T15:50:32.175Z,150
2016-05-14T15:51:32.131Z,165
2016-05-14T15:52:32.086Z,190
2016-05-14T15:53:31.933Z,190
2016-05-14T15:54:32.077Z,170
2016-05-14T15:55:31.924Z,165
2016-05-14T15:56:31.738Z,165
2016-05-14T15:57:32.225Z,165
2016-05-14T15:58:32.040Z,180
2016-05-14T15:59:32.184Z,200
2016-05-14T16:00:31.702Z,215
2016-05-14T16:01:32.002Z,210
2016-05-14T16:02:31.973Z,205
2016-05-14T16:03:31.774Z,200
2016-05-14T16:04:31.979Z,200
2016-05-14T16:05:31.793Z,205
2016-05-14T16:06:31.937Z,220
2016-05-14T16:07:31.768Z,260
2016-05-14T16:08:31.942Z,265
2016-05-14T16:09:31.930Z,255
2016-05-14T16:10:31.729Z,240
2016-05-14T16:11:31.873Z,215
2016-05-14T16:12:31.719Z,190
2016-05-14T16:13:31.706Z,165
2016-05-14T16:14:31.834Z,155
2016-05-14T16:15:31.837Z,155
2016-05-14T16:16:31.512Z,155
2016-05-14T16:17:31.826Z,155
2016-05-14T16:18:31.875Z,150
2016-05-14T16:19:31.675Z,150
2016-05-14T16:20:31.616Z,155
2016-05-14T16:21:31.759Z,160
2016-05-14T16:22:31.762Z,240
2016-05-14T16:23:31.780Z,440
2016-05-14T16:24:31.626Z,670
2016-05-14T16:25:31.441Z,790
2016-05-14T16:26:31.569Z,795
2016-05-14T16:27:31.744Z,780
2016-05-14T16:28:31.715Z,760
2016-05-14T16:29:31.546Z,695
2016-05-14T16:30:31.532Z,665
2016-05-14T16:31:31.599Z,670
2016-05-14T16:32:31.757Z,695
2016-05-14T16:33:32.010Z,685
2016-05-14T16:34:33.262Z,700
2016-05-14T16:35:31.484Z,660
2016-05-14T16:36:31.674Z,705
2016-05-14T16:37:31.630Z,675
2016-05-14T16:38:31.461Z,685
2016-05-14T16:39:31.604Z,655
2016-05-14T16:40:31.606Z,655
2016-05-14T16:41:31.610Z,640
2016-05-14T16:42:31.456Z,320
2016-05-14T16:43:34.553Z,620
2016-05-14T16:44:31.586Z,590
2016-05-14T16:45:40.511Z,590
2016-05-14T16:46:31.779Z,580
2016-05-14T16:47:31.547Z,495
2016-05-14T16:48:39.034Z,290
2016-05-14T16:49:31.584Z,525
2016-05-14T16:50:45.368Z,165
2016-05-14T16:51:31.527Z,150
2016-05-14T16:52:31.545Z,215
2016-05-14T16:53:38.486Z,280
2016-05-14T16:54:31.363Z,180
2016-05-14T16:55:31.210Z,500
2016-05-14T16:56:50.103Z,605
2016-05-14T16:57:31.168Z,595
2016-05-14T16:58:31.483Z,535
2016-05-14T16:59:31.360Z,565
2016-05-14T17:00:31.474Z,370
2016-05-14T17:01:31.320Z,280
2016-05-14T17:02:31.479Z,125
2016-05-14T17:03:31.668Z,110
2016-05-14T17:04:31.328Z,465
2016-05-14T17:05:31.283Z,350
2016-05-14T17:06:31.410Z,445
2016-05-14T17:07:31.257Z,135
2016-05-14T17:08:31.401Z,135
2016-05-14T17:09:31.232Z,135
2016-05-14T17:10:31.375Z,120
2016-05-14T17:11:31.362Z,155
2016-05-14T17:12:31.380Z,285
2016-05-14T17:13:31.352Z,385
2016-05-14T17:14:31.339Z,105
2016-05-14T17:15:31.310Z,90
2016-05-14T17:16:31.329Z,85
2016-05-14T17:17:31.315Z,85
2016-05-14T17:18:31.834Z,95
2016-05-14T17:19:31.618Z,105
2016-05-14T17:20:31.136Z,110
2016-05-14T17:21:31.280Z,110
2016-05-14T17:22:31.251Z,105
2016-05-14T17:23:31.238Z,105
2016-05-14T17:24:31.084Z,145
2016-05-14T17:25:31.244Z,115
2016-05-14T17:26:31.059Z,110
2016-05-14T17:27:31.202Z,115
2016-05-14T17:28:31.049Z,115
2016-05-14T17:29:31.035Z,110
2016-05-14T17:30:31.163Z,110
2016-05-14T17:31:31.150Z,110
2016-05-14T17:32:31.153Z,110
2016-05-14T17:33:31.718Z,110
2016-05-14T17:34:31.486Z,110
2016-05-14T17:35:31.114Z,110
2016-05-14T17:36:30.945Z,110
2016-05-14T17:37:31.104Z,105
2016-05-14T17:38:31.091Z,95
2016-05-14T17:39:31.063Z,90
2016-05-14T17:40:31.049Z,85
2016-05-14T17:41:31.037Z,80
2016-05-14T17:42:31.039Z,80
2016-05-14T17:43:30.870Z,80
2016-05-14T17:44:30.841Z,80
2016-05-14T17:45:30.829Z,75
2016-05-14T17:46:30.988Z,65
2016-05-14T17:47:30.834Z,70
2016-05-14T17:48:31.336Z,65
2016-05-14T17:49:31.089Z,60
2016-05-14T17:50:30.795Z,65
2016-05-14T17:51:30.939Z,60
2016-05-14T17:52:30.753Z,60
2016-05-14T17:53:30.897Z,55
2016-05-14T17:54:30.883Z,60
2016-05-14T17:55:30.886Z,60
2016-05-14T17:56:30.702Z,55
2016-05-14T17:57:30.845Z,55
2016-05-14T17:58:30.675Z,50
2016-05-14T17:59:30.663Z,50
2016-05-14T18:00:30.494Z,50
2016-05-14T18:01:30.496Z,50
2016-05-14T18:02:30.780Z,50
2016-05-14T18:03:31.064Z,50
2016-05-14T18:04:30.942Z,55
2016-05-14T18:05:30.274Z,55
2016-05-14T18:06:30.480Z,55
2016-05-14T18:07:30.732Z,55
2016-05-14T18:08:30.702Z,50
2016-05-14T18:09:30.549Z,40
2016-05-14T18:10:30.552Z,35
2016-05-14T18:11:30.679Z,30
2016-05-14T18:12:30.651Z,30
2016-05-14T18:13:30.638Z,30
2016-05-14T18:14:30.454Z,25
2016-05-14T18:15:30.456Z,25
2016-05-14T18:16:30.599Z,25
2016-05-14T18:17:30.602Z,20
2016-05-14T18:18:30.386Z,20
2016-05-14T18:19:30.764Z,20
2016-05-14T18:20:30.532Z,20
2016-05-14T18:21:30.394Z,20
2016-05-14T18:22:30.209Z,15
2016-05-14T18:23:30.540Z,20
2016-05-14T18:24:30.496Z,20
2016-05-14T18:25:30.467Z,20
2016-05-14T18:26:30.455Z,20
2016-05-14T18:27:30.458Z,25
2016-05-14T18:28:30.256Z,25
2016-05-14T18:29:30.244Z,30
2016-05-14T18:30:30.418Z,25
2016-05-14T18:31:30.108Z,25
2016-05-14T18:32:30.377Z,30
2016-05-14T18:33:30.224Z,30
2016-05-14T18:34:30.429Z,30
2016-05-14T18:35:30.338Z,30
2016-05-14T18:36:30.169Z,30
2016-05-14T18:37:30.296Z,25
2016-05-14T18:38:30.283Z,25
2016-05-14T18:39:30.130Z,30
2016-05-14T18:40:30.257Z,30
2016-05-14T18:41:30.246Z,30
2016-05-14T18:42:30.248Z,25
2016-05-14T18:43:30.219Z,25
2016-05-14T18:44:30.206Z,25
2016-05-14T18:45:30.381Z,20
2016-05-14T18:46:30.165Z,20
2016-05-14T18:47:30.011Z,20
2016-05-14T18:48:30.935Z,20
2016-05-14T18:49:30.234Z,20
2016-05-14T18:50:30.112Z,20
2016-05-14T18:51:29.959Z,15
2016-05-14T18:52:30.087Z,15
2016-05-14T18:53:30.074Z,15
2016-05-14T18:54:30.061Z,15
2016-05-14T18:55:29.736Z,15
2016-05-14T18:56:30.035Z,15
2016-05-14T18:57:30.039Z,15
2016-05-14T18:58:30.009Z,10
2016-05-14T18:59:29.714Z,10
2016-05-14T19:00:29.968Z,10
2016-05-14T19:01:29.955Z,10
2016-05-14T19:02:29.786Z,10
2016-05-14T19:03:31.132Z,5
2016-05-14T19:04:29.916Z,5
2016-05-14T19:05:29.903Z,5
2016-05-14T19:06:29.875Z,5
2016-05-14T19:07:29.721Z,5
2016-05-14T19:08:29.692Z,5
2016-05-14T19:09:29.523Z,0
2016-05-14T19:10:29.807Z,0
2016-05-14T19:11:29.638Z,0
2016-05-14T19:12:29.656Z,0
2016-05-14T19:13:29.613Z,0
2016-05-14T19:14:29.615Z,0
2016-05-14T19:15:29.758Z,0
2016-05-14T19:16:29.729Z,0
2016-05-14T19:17:29.701Z,0
2016-05-14T19:18:30.188Z,0
2016-05-14T19:19:29.988Z,0
2016-05-14T19:20:29.663Z,0
2016-05-14T19:21:29.648Z,0
2016-05-14T19:22:29.651Z,0
2016-05-14T19:23:29.342Z,0
2016-05-14T19:24:29.142Z,0
2016-05-14T19:25:29.144Z,0
2016-05-14T19:26:29.132Z,0
2016-05-14T19:27:29.415Z,0
2016-05-14T19:28:29.543Z,0
2016-05-14T19:29:29.389Z,0
2016-05-14T19:30:29.345Z,0
2016-05-14T19:31:29.348Z,0
2016-05-14T19:32:29.335Z,0
2016-05-14T19:33:29.025Z,0
2016-05-14T19:34:30.075Z,0
2016-05-14T19:35:29.437Z,0
2016-05-14T19:36:29.627Z,0
2016-05-14T19:37:29.113Z,0
2016-05-14T19:38:29.398Z,0
2016-05-14T19:39:29.369Z,0
2016-05-14T19:40:29.044Z,0
2016-05-14T19:41:29.188Z,0
2016-05-14T19:42:29.205Z,0
2016-05-14T19:43:29.162Z,0
2016-05-14T19:44:29.149Z,0
2016-05-14T19:45:29.293Z,0
2016-05-14T19:46:29.107Z,0
2016-05-14T19:47:29.266Z,0
2016-05-14T19:48:29.253Z,0
2016-05-14T19:49:29.662Z,0
2016-05-14T19:50:29.227Z,0
2016-05-14T19:51:29.215Z,0
2016-05-14T19:52:29.187Z,0
2016-05-14T19:53:29.204Z,0
2016-05-14T19:54:28.848Z,0
2016-05-14T19:55:28.834Z,0
2016-05-14T19:56:29.118Z,0
2016-05-14T19:57:29.106Z,0
2016-05-14T19:58:28.937Z,0
2016-05-14T19:59:29.080Z,0
2016-05-14T20:00:28.894Z,0
2016-05-14T20:01:28.897Z,0
2016-05-14T20:02:28.870Z,0
2016-05-14T20:03:28.934Z,0
2016-05-14T20:04:29.202Z,0
2016-05-14T20:05:28.987Z,0
2016-05-14T20:06:29.177Z,0
2016-05-14T20:07:28.647Z,0
2016-05-14T20:08:28.808Z,0
2016-05-14T20:09:28.935Z,0
2016-05-14T20:10:28.766Z,0
2016-05-14T20:11:28.768Z,0
2016-05-14T20:12:28.865Z,0
2016-05-14T20:13:28.852Z,0
2016-05-14T20:14:28.683Z,0
2016-05-14T20:15:28.513Z,0
2016-05-14T20:16:28.344Z,0
2016-05-14T20:17:28.675Z,0
2016-05-14T20:18:28.927Z,0
2016-05-14T20:19:28.993Z,0
2016-05-14T20:20:28.432Z,0
2016-05-14T20:21:28.561Z,0
2016-05-14T20:22:28.720Z,0
2016-05-14T20:23:28.690Z,0
2016-05-14T20:24:28.538Z,0
2016-05-14T20:25:28.665Z,0
2016-05-14T20:26:28.653Z,0
2016-05-14T20:27:28.623Z,0
2016-05-14T20:28:28.626Z,0
2016-05-14T20:29:28.442Z,0
2016-05-14T20:30:28.428Z,0
2016-05-14T20:31:28.417Z,0
2016-05-14T20:32:28.387Z,0
2016-05-14T20:33:29.203Z,0
2016-05-14T20:34:28.362Z,0
2016-05-14T20:35:28.505Z,0
2016-05-14T20:36:28.492Z,0
2016-05-14T20:37:28.478Z,0
2016-05-14T20:38:28.325Z,0
2016-05-14T20:39:28.422Z,0
2016-05-14T20:40:28.409Z,0
2016-05-14T20:41:28.239Z,0
2016-05-14T20:42:28.383Z,0
2016-05-14T20:43:28.199Z,0
2016-05-14T20:44:28.342Z,0
2016-05-14T20:45:28.375Z,0
2016-05-14T20:46:28.175Z,0
2016-05-14T20:47:28.146Z,0
2016-05-14T20:48:28.337Z,0
2016-05-14T20:49:28.480Z,0
2016-05-14T20:50:28.248Z,0
2016-05-14T20:51:28.251Z,0
2016-05-14T20:52:28.051Z,0
2016-05-14T20:53:28.194Z,0
2016-05-14T20:54:28.181Z,0
2016-05-14T20:55:28.184Z,0
2016-05-14T20:56:28.171Z,0
2016-05-14T20:57:27.829Z,0
2016-05-14T20:58:27.801Z,0
2016-05-14T20:59:28.085Z,0
2016-05-14T21:00:28.087Z,0
2016-05-14T21:01:28.075Z,0
2016-05-14T21:02:28.078Z,0
2016-05-14T21:03:28.486Z,0
2016-05-14T21:04:27.864Z,0
2016-05-14T21:05:27.991Z,0
2016-05-14T21:06:27.823Z,0
2016-05-14T21:07:27.966Z,0
2016-05-14T21:08:27.953Z,0
2016-05-14T21:09:27.939Z,0
2016-05-14T21:10:27.786Z,0
2016-05-14T21:11:27.445Z,0
2016-05-14T21:12:27.869Z,0
2016-05-14T21:13:27.873Z,0
2016-05-14T21:14:27.844Z,0
2016-05-14T21:15:27.831Z,0
2016-05-14T21:16:27.646Z,0
2016-05-14T21:17:27.649Z,0
2016-05-14T21:18:27.777Z,0
2016-05-14T21:19:27.466Z,0
2016-05-14T21:20:27.766Z,0
2016-05-14T21:21:27.738Z,0
2016-05-14T21:22:27.396Z,0
2016-05-14T21:23:27.712Z,0
2016-05-14T21:24:27.699Z,0
2016-05-14T21:25:27.530Z,0
2016-05-14T21:26:27.329Z,0
2016-05-14T21:27:27.629Z,0
2016-05-14T21:28:27.616Z,0
2016-05-14T21:29:27.447Z,0
2016-05-14T21:30:27.559Z,0
2016-05-14T21:31:27.546Z,0
2016-05-14T21:32:27.564Z,0
2016-05-14T21:33:27.395Z,0
2016-05-14T21:34:27.225Z,0
2016-05-14T21:35:27.509Z,0
2016-05-14T21:36:27.481Z,0
2016-05-14T21:37:27.469Z,0
2016-05-14T21:38:27.424Z,0
2016-05-14T21:39:27.411Z,0
2016-05-14T21:40:27.258Z,0
2016-05-14T21:41:27.385Z,0
2016-05-14T21:42:27.372Z,0
2016-05-14T21:43:27.374Z,0
2016-05-14T21:44:27.346Z,0
2016-05-14T21:45:27.162Z,0
2016-05-14T21:46:27.289Z,0
2016-05-14T21:47:27.277Z,0
2016-05-14T21:48:27.294Z,0
2016-05-14T21:49:27.141Z,0
2016-05-14T21:50:27.238Z,0
2016-05-14T21:51:27.209Z,0
2016-05-14T21:52:27.196Z,0
2016-05-14T21:53:27.198Z,0
2016-05-14T21:54:27.390Z,0
2016-05-14T21:55:27.173Z,0
2016-05-14T21:56:27.223Z,0
2016-05-14T21:57:27.163Z,0
2016-05-14T21:58:26.931Z,0
2016-05-14T21:59:27.074Z,0
2016-05-14T22:00:27.077Z,0
2016-05-14T22:01:26.892Z,0
2016-05-14T22:02:27.223Z,0
2016-05-14T22:03:26.913Z,0
2016-05-14T22:04:27.698Z,0
2016-05-14T22:05:26.840Z,0
2016-05-14T22:06:26.968Z,0
2016-05-14T22:07:26.925Z,0
2016-05-14T22:08:26.911Z,0
2016-05-14T22:09:26.898Z,0
2016-05-14T22:10:26.900Z,0
2016-05-14T22:11:26.872Z,0
2016-05-14T22:12:26.844Z,0
2016-05-14T22:13:26.831Z,0
2016-05-14T22:14:26.818Z,0
2016-05-14T22:15:26.821Z,0
2016-05-14T22:16:26.777Z,0
2016-05-14T22:17:26.607Z,0
2016-05-14T22:18:27.250Z,0
2016-05-14T22:19:26.737Z,0
2016-05-14T22:20:26.568Z,0
2016-05-14T22:21:26.541Z,0
2016-05-14T22:22:26.668Z,0
2016-05-14T22:23:26.654Z,0
2016-05-14T22:24:26.485Z,0
2016-05-14T22:25:26.457Z,0
2016-05-14T22:26:26.601Z,0
2016-05-14T22:27:26.604Z,0
2016-05-14T22:28:26.559Z,0
2016-05-14T22:29:26.546Z,0
2016-05-14T22:30:26.548Z,0
2016-05-14T22:31:26.504Z,0
2016-05-14T22:32:26.522Z,0
2016-05-14T22:33:26.911Z,0
2016-05-14T22:34:26.426Z,0
2016-05-14T22:35:26.425Z,0
2016-05-14T22:36:26.454Z,0
2016-05-14T22:37:26.632Z,0
2016-05-14T22:38:26.461Z,0
2016-05-14T22:39:26.465Z,0
2016-05-14T22:40:26.623Z,0
2016-05-14T22:41:26.626Z,0
2016-05-14T22:42:26.608Z,0
2016-05-14T22:43:26.460Z,0
2016-05-14T22:44:26.640Z,0
2016-05-14T22:45:27.195Z,0
2016-05-14T22:46:26.562Z,0
2016-05-14T22:47:26.555Z,0
2016-05-14T22:48:26.824Z,0
2016-05-14T22:49:26.595Z,0
2016-05-14T22:50:26.490Z,0
2016-05-14T22:51:26.495Z,0
2016-05-14T22:52:26.483Z,0
2016-05-14T22:53:26.487Z,0
2016-05-14T22:54:26.427Z,0
2016-05-14T22:55:26.259Z,0
2016-05-14T22:56:26.090Z,0
2016-05-14T22:57:26.234Z,0
2016-05-14T22:58:26.394Z,0
2016-05-14T22:59:26.351Z,0
2016-05-14T23:00:26.337Z,0
2016-05-14T23:01:26.325Z,0
2016-05-14T23:02:26.296Z,0
2016-05-14T23:03:26.127Z,0
2016-05-14T23:04:26.130Z,0
2016-05-14T23:05:26.257Z,0
2016-05-14T23:06:26.229Z,0
2016-05-14T23:07:26.059Z,0
2016-05-14T23:08:26.218Z,0
2016-05-14T23:09:26.207Z,0
2016-05-14T23:10:26.162Z,0
2016-05-14T23:11:26.149Z,0
2016-05-14T23:12:25.979Z,0
2016-05-14T23:13:26.123Z,0
2016-05-14T23:14:26.110Z,0
2016-05-14T23:15:26.066Z,0
2016-05-14T23:16:26.053Z,0
2016-05-14T23:17:26.040Z,0
2016-05-14T23:18:26.027Z,0
2016-05-14T23:19:26.717Z,0
2016-05-14T23:20:25.830Z,0
2016-05-14T23:21:25.972Z,0
2016-05-14T23:22:25.944Z,0
2016-05-14T23:23:25.931Z,0
2016-05-14T23:24:25.762Z,0
2016-05-14T23:25:25.905Z,0
2016-05-14T23:26:25.892Z,0
2016-05-14T23:27:25.879Z,0
2016-05-14T23:28:25.679Z,0
2016-05-14T23:29:25.713Z,0
2016-05-14T23:30:25.794Z,0
2016-05-14T23:31:25.781Z,0
2016-05-14T23:32:25.658Z,0
2016-05-14T23:33:25.754Z,0
2016-05-14T23:34:25.710Z,0
2016-05-14T23:35:25.557Z,0
2016-05-14T23:36:25.419Z,0
2016-05-14T23:37:25.688Z,0
2016-05-14T23:38:25.659Z,0
2016-05-14T23:39:25.646Z,0
2016-05-14T23:40:25.461Z,0
2016-05-14T23:41:25.464Z,0
2016-05-14T23:42:25.592Z,0
2016-05-14T23:43:25.438Z,0
2016-05-14T23:44:25.238Z,0
2016-05-14T23:45:25.537Z,0
2016-05-14T23:46:25.525Z,0
2016-05-14T23:47:25.339Z,0
2016-05-14T23:48:25.327Z,0
2016-05-14T23:49:25.703Z,0
2016-05-14T23:50:25.301Z,0
2016-05-14T23:51:25.428Z,0
2016-05-14T23:52:25.416Z,0
2016-05-14T23:53:25.387Z,0
2016-05-14T23:54:25.217Z,0
2016-05-14T23:55:25.345Z,0
2016-05-14T23:56:25.348Z,0
2016-05-14T23:57:25.210Z,0
2016-05-14T23:58:25.166Z,0
2016-05-14T23:59:25.153Z,0
